sensor_id;sensor_type;location;lat;lon;timestamp;P1;durP1;ratioP1;P2;durP2;ratioP2
15216;SDS011;7711;46.634;14.318;2023-05-07T00:00:48;12.65;;;9.95;;
15216;SDS011;7711;46.634;14.318;2023-05-07T00:03:16;11.00;;;9.80;;
15216;SDS011;7711;46.634;14.318;2023-05-07T00:05:44;12.57;;;9.33;;
15216;SDS011;7711;46.634;14.318;2023-05-07T00:08:11;11.98;;;10.20;;
15216;SDS011;7711;46.634;14.318;2023-05-07T00:10:40;13.88;;;10.32;;
15216;SDS011;7711;46.634;14.318;2023-05-07T00:13:07;13.20;;;10.57;;
15216;SDS011;7711;46.634;14.318;2023-05-07T00:15:34;14.93;;;10.80;;
15216;SDS011;7711;46.634;14.318;2023-05-07T00:18:01;11.98;;;10.77;;
15216;SDS011;7711;46.634;14.318;2023-05-07T00:20:29;13.82;;;10.90;;
15216;SDS011;7711;46.634;14.318;2023-05-07T00:22:56;11.85;;;10.68;;
15216;SDS011;7711;46.634;14.318;2023-05-07T00:25:22;11.98;;;10.18;;
15216;SDS011;7711;46.634;14.318;2023-05-07T00:27:51;12.13;;;10.25;;
15216;SDS011;7711;46.634;14.318;2023-05-07T00:30:18;11.95;;;10.45;;
15216;SDS011;7711;46.634;14.318;2023-05-07T00:32:45;13.98;;;12.18;;
15216;SDS011;7711;46.634;14.318;2023-05-07T00:35:14;12.80;;;11.25;;
15216;SDS011;7711;46.634;14.318;2023-05-07T00:37:41;14.20;;;11.10;;
15216;SDS011;7711;46.634;14.318;2023-05-07T00:40:08;13.65;;;11.40;;
15216;SDS011;7711;46.634;14.318;2023-05-07T00:42:35;13.10;;;11.02;;
15216;SDS011;7711;46.634;14.318;2023-05-07T00:45:04;12.65;;;11.35;;
15216;SDS011;7711;46.634;14.318;2023-05-07T00:47:32;13.30;;;11.88;;
15216;SDS011;7711;46.634;14.318;2023-05-07T00:50:00;13.43;;;11.18;;
15216;SDS011;7711;46.634;14.318;2023-05-07T00:52:27;13.80;;;11.73;;
15216;SDS011;7711;46.634;14.318;2023-05-07T00:54:55;15.52;;;11.90;;
15216;SDS011;7711;46.634;14.318;2023-05-07T00:57:22;12.95;;;11.40;;
15216;SDS011;7711;46.634;14.318;2023-05-07T00:59:51;11.98;;;10.77;;
15216;SDS011;7711;46.634;14.318;2023-05-07T01:02:19;13.23;;;10.35;;
15216;SDS011;7711;46.634;14.318;2023-05-07T01:04:46;11.52;;;10.23;;
15216;SDS011;7711;46.634;14.318;2023-05-07T01:07:13;11.18;;;9.88;;
15216;SDS011;7711;46.634;14.318;2023-05-07T01:09:41;11.82;;;10.27;;
15216;SDS011;7711;46.634;14.318;2023-05-07T01:12:08;11.00;;;9.87;;
15216;SDS011;7711;46.634;14.318;2023-05-07T01:14:35;10.27;;;9.10;;
15216;SDS011;7711;46.634;14.318;2023-05-07T01:17:02;10.50;;;8.63;;
15216;SDS011;7711;46.634;14.318;2023-05-07T01:19:30;10.65;;;8.50;;
15216;SDS011;7711;46.634;14.318;2023-05-07T01:22:00;9.40;;;8.48;;
15216;SDS011;7711;46.634;14.318;2023-05-07T01:24:32;7.90;;;7.20;;
15216;SDS011;7711;46.634;14.318;2023-05-07T01:26:59;8.50;;;7.65;;
15216;SDS011;7711;46.634;14.318;2023-05-07T01:29:27;7.72;;;7.03;;
15216;SDS011;7711;46.634;14.318;2023-05-07T01:31:54;8.02;;;7.22;;
15216;SDS011;7711;46.634;14.318;2023-05-07T01:34:24;8.80;;;7.15;;
15216;SDS011;7711;46.634;14.318;2023-05-07T01:36:53;8.50;;;7.57;;
15216;SDS011;7711;46.634;14.318;2023-05-07T01:39:23;9.05;;;8.15;;
15216;SDS011;7711;46.634;14.318;2023-05-07T01:41:52;8.82;;;7.95;;
15216;SDS011;7711;46.634;14.318;2023-05-07T01:44:21;9.75;;;7.97;;
15216;SDS011;7711;46.634;14.318;2023-05-07T01:46:48;8.65;;;7.75;;
15216;SDS011;7711;46.634;14.318;2023-05-07T01:49:15;9.02;;;8.10;;
15216;SDS011;7711;46.634;14.318;2023-05-07T01:51:43;8.20;;;7.40;;
15216;SDS011;7711;46.634;14.318;2023-05-07T01:54:10;9.75;;;7.65;;
15216;SDS011;7711;46.634;14.318;2023-05-07T01:56:37;7.82;;;7.00;;
15216;SDS011;7711;46.634;14.318;2023-05-07T01:59:05;7.55;;;6.72;;
15216;SDS011;7711;46.634;14.318;2023-05-07T02:01:32;8.35;;;6.47;;
15216;SDS011;7711;46.634;14.318;2023-05-07T02:03:59;8.25;;;6.93;;
15216;SDS011;7711;46.634;14.318;2023-05-07T02:06:26;6.85;;;6.15;;
15216;SDS011;7711;46.634;14.318;2023-05-07T02:08:53;7.85;;;6.22;;
15216;SDS011;7711;46.634;14.318;2023-05-07T02:11:20;6.80;;;6.18;;
15216;SDS011;7711;46.634;14.318;2023-05-07T02:13:47;6.90;;;6.20;;
15216;SDS011;7711;46.634;14.318;2023-05-07T02:16:15;7.07;;;6.25;;
15216;SDS011;7711;46.634;14.318;2023-05-07T02:18:42;7.18;;;6.45;;
15216;SDS011;7711;46.634;14.318;2023-05-07T02:21:09;6.75;;;6.15;;
15216;SDS011;7711;46.634;14.318;2023-05-07T02:23:36;7.28;;;6.57;;
15216;SDS011;7711;46.634;14.318;2023-05-07T02:26:03;7.78;;;6.95;;
15216;SDS011;7711;46.634;14.318;2023-05-07T02:28:30;9.55;;;6.57;;
15216;SDS011;7711;46.634;14.318;2023-05-07T02:30:58;7.53;;;6.82;;
15216;SDS011;7711;46.634;14.318;2023-05-07T02:33:27;7.68;;;6.97;;
15216;SDS011;7711;46.634;14.318;2023-05-07T02:35:54;8.10;;;7.30;;
15216;SDS011;7711;46.634;14.318;2023-05-07T02:38:21;7.35;;;6.65;;
15216;SDS011;7711;46.634;14.318;2023-05-07T02:40:48;8.38;;;7.45;;
15216;SDS011;7711;46.634;14.318;2023-05-07T02:43:15;7.57;;;6.85;;
15216;SDS011;7711;46.634;14.318;2023-05-07T02:45:42;7.85;;;7.05;;
15216;SDS011;7711;46.634;14.318;2023-05-07T02:48:09;7.25;;;6.65;;
15216;SDS011;7711;46.634;14.318;2023-05-07T02:50:37;7.75;;;7.05;;
15216;SDS011;7711;46.634;14.318;2023-05-07T02:53:04;7.78;;;6.97;;
15216;SDS011;7711;46.634;14.318;2023-05-07T02:55:31;11.32;;;7.60;;
15216;SDS011;7711;46.634;14.318;2023-05-07T02:57:58;7.72;;;6.93;;
15216;SDS011;7711;46.634;14.318;2023-05-07T03:00:25;9.13;;;6.80;;
15216;SDS011;7711;46.634;14.318;2023-05-07T03:02:52;8.27;;;7.47;;
15216;SDS011;7711;46.634;14.318;2023-05-07T03:05:19;7.28;;;6.47;;
15216;SDS011;7711;46.634;14.318;2023-05-07T03:07:47;9.40;;;7.47;;
15216;SDS011;7711;46.634;14.318;2023-05-07T03:10:15;8.55;;;7.75;;
15216;SDS011;7711;46.634;14.318;2023-05-07T03:12:42;8.85;;;7.13;;
15216;SDS011;7711;46.634;14.318;2023-05-07T03:15:09;9.18;;;7.68;;
15216;SDS011;7711;46.634;14.318;2023-05-07T03:17:37;8.18;;;7.38;;
15216;SDS011;7711;46.634;14.318;2023-05-07T03:20:05;7.75;;;7.05;;
15216;SDS011;7711;46.634;14.318;2023-05-07T03:22:34;9.20;;;7.80;;
15216;SDS011;7711;46.634;14.318;2023-05-07T03:25:02;8.80;;;7.90;;
15216;SDS011;7711;46.634;14.318;2023-05-07T03:27:30;11.25;;;7.80;;
15216;SDS011;7711;46.634;14.318;2023-05-07T03:29:57;7.95;;;6.80;;
15216;SDS011;7711;46.634;14.318;2023-05-07T03:32:24;8.60;;;7.70;;
15216;SDS011;7711;46.634;14.318;2023-05-07T03:34:51;8.48;;;7.22;;
15216;SDS011;7711;46.634;14.318;2023-05-07T03:37:18;9.23;;;7.70;;
15216;SDS011;7711;46.634;14.318;2023-05-07T03:39:46;8.52;;;7.35;;
15216;SDS011;7711;46.634;14.318;2023-05-07T03:42:15;8.73;;;7.82;;
15216;SDS011;7711;46.634;14.318;2023-05-07T03:44:42;9.05;;;8.20;;
15216;SDS011;7711;46.634;14.318;2023-05-07T03:47:09;9.02;;;8.13;;
15216;SDS011;7711;46.634;14.318;2023-05-07T03:49:36;10.07;;;7.68;;
15216;SDS011;7711;46.634;14.318;2023-05-07T03:52:03;9.98;;;7.60;;
15216;SDS011;7711;46.634;14.318;2023-05-07T03:54:30;8.65;;;7.82;;
15216;SDS011;7711;46.634;14.318;2023-05-07T03:56:57;8.27;;;7.43;;
15216;SDS011;7711;46.634;14.318;2023-05-07T03:59:25;7.63;;;6.93;;
15216;SDS011;7711;46.634;14.318;2023-05-07T04:01:52;8.35;;;6.82;;
15216;SDS011;7711;46.634;14.318;2023-05-07T04:04:19;9.10;;;7.80;;
15216;SDS011;7711;46.634;14.318;2023-05-07T04:06:47;8.43;;;7.35;;
15216;SDS011;7711;46.634;14.318;2023-05-07T04:09:13;8.35;;;7.55;;
15216;SDS011;7711;46.634;14.318;2023-05-07T04:11:40;8.65;;;7.80;;
15216;SDS011;7711;46.634;14.318;2023-05-07T04:14:07;8.98;;;7.00;;
15216;SDS011;7711;46.634;14.318;2023-05-07T04:16:36;9.27;;;8.20;;
15216;SDS011;7711;46.634;14.318;2023-05-07T04:19:03;7.75;;;6.95;;
15216;SDS011;7711;46.634;14.318;2023-05-07T04:21:30;8.20;;;7.40;;
15216;SDS011;7711;46.634;14.318;2023-05-07T04:23:57;8.10;;;7.30;;
15216;SDS011;7711;46.634;14.318;2023-05-07T04:26:24;8.18;;;7.38;;
15216;SDS011;7711;46.634;14.318;2023-05-07T04:28:51;10.63;;;7.97;;
15216;SDS011;7711;46.634;14.318;2023-05-07T04:31:18;9.38;;;7.60;;
15216;SDS011;7711;46.634;14.318;2023-05-07T04:33:47;8.18;;;7.47;;
15216;SDS011;7711;46.634;14.318;2023-05-07T04:36:13;8.85;;;7.90;;
15216;SDS011;7711;46.634;14.318;2023-05-07T04:38:40;9.68;;;8.05;;
15216;SDS011;7711;46.634;14.318;2023-05-07T04:41:08;8.20;;;7.38;;
15216;SDS011;7711;46.634;14.318;2023-05-07T04:43:36;8.48;;;7.68;;
15216;SDS011;7711;46.634;14.318;2023-05-07T04:46:03;10.63;;;7.28;;
15216;SDS011;7711;46.634;14.318;2023-05-07T04:48:30;10.98;;;8.30;;
15216;SDS011;7711;46.634;14.318;2023-05-07T04:50:58;10.82;;;7.90;;
15216;SDS011;7711;46.634;14.318;2023-05-07T04:53:25;8.70;;;7.80;;
15216;SDS011;7711;46.634;14.318;2023-05-07T04:55:54;8.45;;;7.32;;
15216;SDS011;7711;46.634;14.318;2023-05-07T04:58:22;7.88;;;7.13;;
15216;SDS011;7711;46.634;14.318;2023-05-07T05:00:49;7.90;;;7.07;;
15216;SDS011;7711;46.634;14.318;2023-05-07T05:03:16;7.68;;;6.88;;
15216;SDS011;7711;46.634;14.318;2023-05-07T05:05:43;8.63;;;7.15;;
15216;SDS011;7711;46.634;14.318;2023-05-07T05:08:12;7.80;;;7.03;;
15216;SDS011;7711;46.634;14.318;2023-05-07T05:10:39;8.18;;;6.50;;
15216;SDS011;7711;46.634;14.318;2023-05-07T05:13:08;7.10;;;6.38;;
15216;SDS011;7711;46.634;14.318;2023-05-07T05:15:37;7.50;;;6.68;;
15216;SDS011;7711;46.634;14.318;2023-05-07T05:18:04;7.45;;;6.47;;
15216;SDS011;7711;46.634;14.318;2023-05-07T05:20:31;9.80;;;7.13;;
15216;SDS011;7711;46.634;14.318;2023-05-07T05:22:58;6.82;;;6.22;;
15216;SDS011;7711;46.634;14.318;2023-05-07T05:25:26;6.93;;;6.28;;
15216;SDS011;7711;46.634;14.318;2023-05-07T05:27:53;8.63;;;7.82;;
15216;SDS011;7711;46.634;14.318;2023-05-07T05:30:20;8.13;;;7.30;;
15216;SDS011;7711;46.634;14.318;2023-05-07T05:32:47;7.28;;;6.53;;
15216;SDS011;7711;46.634;14.318;2023-05-07T05:35:14;8.57;;;6.90;;
15216;SDS011;7711;46.634;14.318;2023-05-07T05:37:41;7.70;;;6.85;;
15216;SDS011;7711;46.634;14.318;2023-05-07T05:40:08;9.45;;;6.85;;
15216;SDS011;7711;46.634;14.318;2023-05-07T05:42:37;9.32;;;6.85;;
15216;SDS011;7711;46.634;14.318;2023-05-07T05:45:05;7.85;;;7.05;;
15216;SDS011;7711;46.634;14.318;2023-05-07T05:47:32;7.13;;;6.43;;
15216;SDS011;7711;46.634;14.318;2023-05-07T05:49:59;9.50;;;6.75;;
15216;SDS011;7711;46.634;14.318;2023-05-07T05:52:26;6.78;;;6.18;;
15216;SDS011;7711;46.634;14.318;2023-05-07T05:54:54;7.68;;;6.75;;
15216;SDS011;7711;46.634;14.318;2023-05-07T05:57:20;6.03;;;5.43;;
15216;SDS011;7711;46.634;14.318;2023-05-07T05:59:49;6.68;;;6.07;;
15216;SDS011;7711;46.634;14.318;2023-05-07T06:02:16;6.63;;;6.03;;
15216;SDS011;7711;46.634;14.318;2023-05-07T06:04:43;8.95;;;6.35;;
15216;SDS011;7711;46.634;14.318;2023-05-07T06:07:10;6.35;;;5.82;;
15216;SDS011;7711;46.634;14.318;2023-05-07T06:09:37;8.63;;;6.53;;
15216;SDS011;7711;46.634;14.318;2023-05-07T06:12:04;7.70;;;5.75;;
15216;SDS011;7711;46.634;14.318;2023-05-07T06:14:31;6.05;;;5.47;;
15216;SDS011;7711;46.634;14.318;2023-05-07T06:17:00;6.65;;;5.95;;
15216;SDS011;7711;46.634;14.318;2023-05-07T06:19:27;7.47;;;6.22;;
15216;SDS011;7711;46.634;14.318;2023-05-07T06:21:53;6.93;;;6.22;;
15216;SDS011;7711;46.634;14.318;2023-05-07T06:24:21;6.50;;;5.90;;
15216;SDS011;7711;46.634;14.318;2023-05-07T06:26:48;8.27;;;6.50;;
15216;SDS011;7711;46.634;14.318;2023-05-07T06:29:15;6.57;;;5.97;;
15216;SDS011;7711;46.634;14.318;2023-05-07T06:31:42;6.82;;;6.22;;
15216;SDS011;7711;46.634;14.318;2023-05-07T06:34:10;6.80;;;6.07;;
15216;SDS011;7711;46.634;14.318;2023-05-07T06:36:39;6.80;;;5.80;;
15216;SDS011;7711;46.634;14.318;2023-05-07T06:39:06;6.78;;;5.43;;
15216;SDS011;7711;46.634;14.318;2023-05-07T06:41:33;5.85;;;5.35;;
15216;SDS011;7711;46.634;14.318;2023-05-07T06:44:00;5.60;;;5.20;;
15216;SDS011;7711;46.634;14.318;2023-05-07T06:46:27;9.43;;;5.68;;
15216;SDS011;7711;46.634;14.318;2023-05-07T06:48:54;6.88;;;5.47;;
15216;SDS011;7711;46.634;14.318;2023-05-07T06:51:23;5.85;;;5.35;;
15216;SDS011;7711;46.634;14.318;2023-05-07T06:53:50;6.38;;;5.78;;
15216;SDS011;7711;46.634;14.318;2023-05-07T06:56:17;5.97;;;5.47;;
15216;SDS011;7711;46.634;14.318;2023-05-07T06:58:44;7.20;;;6.00;;
15216;SDS011;7711;46.634;14.318;2023-05-07T07:01:11;6.57;;;5.97;;
15216;SDS011;7711;46.634;14.318;2023-05-07T07:03:38;6.57;;;5.88;;
15216;SDS011;7711;46.634;14.318;2023-05-07T07:06:05;6.05;;;5.45;;
15216;SDS011;7711;46.634;14.318;2023-05-07T07:08:34;6.43;;;5.82;;
15216;SDS011;7711;46.634;14.318;2023-05-07T07:11:03;5.90;;;5.40;;
15216;SDS011;7711;46.634;14.318;2023-05-07T07:13:30;6.43;;;5.20;;
15216;SDS011;7711;46.634;14.318;2023-05-07T07:15:57;5.95;;;5.35;;
15216;SDS011;7711;46.634;14.318;2023-05-07T07:18:24;5.57;;;5.07;;
15216;SDS011;7711;46.634;14.318;2023-05-07T07:20:51;6.18;;;5.60;;
15216;SDS011;7711;46.634;14.318;2023-05-07T07:23:18;6.78;;;5.95;;
15216;SDS011;7711;46.634;14.318;2023-05-07T07:25:47;5.93;;;5.32;;
15216;SDS011;7711;46.634;14.318;2023-05-07T07:28:13;6.32;;;5.38;;
15216;SDS011;7711;46.634;14.318;2023-05-07T07:30:40;5.45;;;4.95;;
15216;SDS011;7711;46.634;14.318;2023-05-07T07:33:07;7.00;;;5.32;;
15216;SDS011;7711;46.634;14.318;2023-05-07T07:35:34;5.40;;;4.90;;
15216;SDS011;7711;46.634;14.318;2023-05-07T07:38:01;6.28;;;5.68;;
15216;SDS011;7711;46.634;14.318;2023-05-07T07:40:28;5.65;;;5.07;;
15216;SDS011;7711;46.634;14.318;2023-05-07T07:42:57;6.65;;;5.28;;
15216;SDS011;7711;46.634;14.318;2023-05-07T07:45:24;5.07;;;4.63;;
15216;SDS011;7711;46.634;14.318;2023-05-07T07:47:51;6.00;;;5.40;;
15216;SDS011;7711;46.634;14.318;2023-05-07T07:50:18;6.95;;;5.55;;
15216;SDS011;7711;46.634;14.318;2023-05-07T07:52:45;5.80;;;5.30;;
15216;SDS011;7711;46.634;14.318;2023-05-07T07:55:12;5.07;;;4.68;;
15216;SDS011;7711;46.634;14.318;2023-05-07T07:57:43;5.47;;;5.05;;
15216;SDS011;7711;46.634;14.318;2023-05-07T08:00:12;5.65;;;5.00;;
15216;SDS011;7711;46.634;14.318;2023-05-07T08:02:39;5.90;;;5.07;;
15216;SDS011;7711;46.634;14.318;2023-05-07T08:05:07;5.95;;;5.03;;
15216;SDS011;7711;46.634;14.318;2023-05-07T08:07:34;9.23;;;5.53;;
15216;SDS011;7711;46.634;14.318;2023-05-07T08:10:01;5.57;;;5.07;;
15216;SDS011;7711;46.634;14.318;2023-05-07T08:12:28;5.10;;;4.60;;
15216;SDS011;7711;46.634;14.318;2023-05-07T08:14:55;5.97;;;5.30;;
15216;SDS011;7711;46.634;14.318;2023-05-07T08:17:24;6.60;;;5.43;;
15216;SDS011;7711;46.634;14.318;2023-05-07T08:19:51;6.20;;;5.53;;
15216;SDS011;7711;46.634;14.318;2023-05-07T08:22:18;6.32;;;5.60;;
15216;SDS011;7711;46.634;14.318;2023-05-07T08:24:45;7.80;;;5.55;;
15216;SDS011;7711;46.634;14.318;2023-05-07T08:27:11;5.93;;;5.43;;
15216;SDS011;7711;46.634;14.318;2023-05-07T08:29:38;6.60;;;5.40;;
15216;SDS011;7711;46.634;14.318;2023-05-07T08:32:05;5.88;;;5.35;;
15216;SDS011;7711;46.634;14.318;2023-05-07T08:34:34;6.03;;;5.43;;
15216;SDS011;7711;46.634;14.318;2023-05-07T08:37:01;6.38;;;5.72;;
15216;SDS011;7711;46.634;14.318;2023-05-07T08:39:27;5.60;;;5.10;;
15216;SDS011;7711;46.634;14.318;2023-05-07T08:41:55;7.53;;;5.47;;
15216;SDS011;7711;46.634;14.318;2023-05-07T08:44:23;5.85;;;5.30;;
15216;SDS011;7711;46.634;14.318;2023-05-07T08:46:54;6.25;;;5.75;;
15216;SDS011;7711;46.634;14.318;2023-05-07T08:49:22;6.88;;;5.82;;
15216;SDS011;7711;46.634;14.318;2023-05-07T08:51:51;5.85;;;5.35;;
15216;SDS011;7711;46.634;14.318;2023-05-07T08:54:18;5.80;;;5.30;;
15216;SDS011;7711;46.634;14.318;2023-05-07T08:56:46;6.20;;;5.60;;
15216;SDS011;7711;46.634;14.318;2023-05-07T08:59:13;5.97;;;5.18;;
15216;SDS011;7711;46.634;14.318;2023-05-07T09:01:40;6.18;;;5.55;;
15216;SDS011;7711;46.634;14.318;2023-05-07T09:04:07;5.85;;;5.35;;
15216;SDS011;7711;46.634;14.318;2023-05-07T09:06:34;9.07;;;5.55;;
15216;SDS011;7711;46.634;14.318;2023-05-07T09:09:04;5.80;;;5.20;;
15216;SDS011;7711;46.634;14.318;2023-05-07T09:11:31;7.82;;;5.50;;
15216;SDS011;7711;46.634;14.318;2023-05-07T09:13:58;6.07;;;5.55;;
15216;SDS011;7711;46.634;14.318;2023-05-07T09:16:26;5.43;;;4.85;;
15216;SDS011;7711;46.634;14.318;2023-05-07T09:18:56;5.75;;;5.13;;
15216;SDS011;7711;46.634;14.318;2023-05-07T09:21:25;6.25;;;5.45;;
15216;SDS011;7711;46.634;14.318;2023-05-07T09:23:52;5.45;;;4.95;;
15216;SDS011;7711;46.634;14.318;2023-05-07T09:26:22;5.50;;;5.00;;
15216;SDS011;7711;46.634;14.318;2023-05-07T09:28:50;5.57;;;4.90;;
15216;SDS011;7711;46.634;14.318;2023-05-07T09:31:17;5.85;;;5.10;;
15216;SDS011;7711;46.634;14.318;2023-05-07T09:33:44;5.72;;;5.22;;
15216;SDS011;7711;46.634;14.318;2023-05-07T09:36:11;10.13;;;6.05;;
15216;SDS011;7711;46.634;14.318;2023-05-07T09:38:38;6.47;;;5.30;;
15216;SDS011;7711;46.634;14.318;2023-05-07T09:41:06;5.68;;;5.18;;
15216;SDS011;7711;46.634;14.318;2023-05-07T09:43:36;7.22;;;5.70;;
15216;SDS011;7711;46.634;14.318;2023-05-07T09:46:09;6.25;;;5.45;;
15216;SDS011;7711;46.634;14.318;2023-05-07T09:48:39;6.18;;;5.40;;
15216;SDS011;7711;46.634;14.318;2023-05-07T09:51:11;7.25;;;5.50;;
15216;SDS011;7711;46.634;14.318;2023-05-07T09:53:44;6.18;;;5.38;;
15216;SDS011;7711;46.634;14.318;2023-05-07T09:56:12;6.10;;;5.47;;
15216;SDS011;7711;46.634;14.318;2023-05-07T09:58:42;5.82;;;5.32;;
15216;SDS011;7711;46.634;14.318;2023-05-07T10:01:11;5.88;;;5.38;;
15216;SDS011;7711;46.634;14.318;2023-05-07T10:03:39;6.30;;;5.80;;
15216;SDS011;7711;46.634;14.318;2023-05-07T10:06:08;5.40;;;5.00;;
15216;SDS011;7711;46.634;14.318;2023-05-07T10:08:36;5.57;;;4.85;;
15216;SDS011;7711;46.634;14.318;2023-05-07T10:11:03;6.00;;;5.40;;
15216;SDS011;7711;46.634;14.318;2023-05-07T10:13:31;6.30;;;5.50;;
15216;SDS011;7711;46.634;14.318;2023-05-07T10:16:02;6.00;;;5.50;;
15216;SDS011;7711;46.634;14.318;2023-05-07T10:18:30;6.00;;;5.25;;
15216;SDS011;7711;46.634;14.318;2023-05-07T10:21:00;5.93;;;5.32;;
15216;SDS011;7711;46.634;14.318;2023-05-07T10:23:31;5.45;;;5.05;;
15216;SDS011;7711;46.634;14.318;2023-05-07T10:25:59;6.28;;;5.78;;
15216;SDS011;7711;46.634;14.318;2023-05-07T10:28:29;5.80;;;5.30;;
15216;SDS011;7711;46.634;14.318;2023-05-07T10:31:02;5.78;;;5.20;;
15216;SDS011;7711;46.634;14.318;2023-05-07T10:33:41;6.28;;;5.65;;
15216;SDS011;7711;46.634;14.318;2023-05-07T10:36:09;6.68;;;5.57;;
15216;SDS011;7711;46.634;14.318;2023-05-07T10:38:37;5.70;;;5.05;;
15216;SDS011;7711;46.634;14.318;2023-05-07T10:41:05;5.72;;;5.22;;
15216;SDS011;7711;46.634;14.318;2023-05-07T10:43:39;5.57;;;5.07;;
15216;SDS011;7711;46.634;14.318;2023-05-07T10:46:13;6.28;;;5.70;;
15216;SDS011;7711;46.634;14.318;2023-05-07T10:51:33;6.10;;;5.50;;
15216;SDS011;7711;46.634;14.318;2023-05-07T10:54:20;8.23;;;6.43;;
15216;SDS011;7711;46.634;14.318;2023-05-07T10:56:47;6.10;;;5.47;;
15216;SDS011;7711;46.634;14.318;2023-05-07T11:02:08;6.65;;;6.10;;
15216;SDS011;7711;46.634;14.318;2023-05-07T11:04:36;6.60;;;5.90;;
15216;SDS011;7711;46.634;14.318;2023-05-07T11:10:04;6.82;;;6.13;;
15216;SDS011;7711;46.634;14.318;2023-05-07T11:12:51;7.22;;;6.53;;
15216;SDS011;7711;46.634;14.318;2023-05-07T11:15:33;6.35;;;5.82;;
15216;SDS011;7711;46.634;14.318;2023-05-07T11:18:02;6.03;;;5.53;;
15216;SDS011;7711;46.634;14.318;2023-05-07T11:20:46;6.22;;;5.63;;
15216;SDS011;7711;46.634;14.318;2023-05-07T11:26:25;6.45;;;5.85;;
15216;SDS011;7711;46.634;14.318;2023-05-07T11:28:53;7.68;;;6.63;;
15216;SDS011;7711;46.634;14.318;2023-05-07T11:31:21;6.85;;;6.07;;
15216;SDS011;7711;46.634;14.318;2023-05-07T11:33:55;6.25;;;5.65;;
15216;SDS011;7711;46.634;14.318;2023-05-07T11:36:23;6.00;;;5.50;;
15216;SDS011;7711;46.634;14.318;2023-05-07T11:38:51;5.90;;;5.40;;
15216;SDS011;7711;46.634;14.318;2023-05-07T11:41:18;6.32;;;5.72;;
15216;SDS011;7711;46.634;14.318;2023-05-07T11:43:58;7.20;;;5.63;;
15216;SDS011;7711;46.634;14.318;2023-05-07T11:46:26;5.80;;;5.30;;
15216;SDS011;7711;46.634;14.318;2023-05-07T11:48:56;6.35;;;5.63;;
15216;SDS011;7711;46.634;14.318;2023-05-07T11:51:23;6.97;;;5.43;;
15216;SDS011;7711;46.634;14.318;2023-05-07T11:53:52;5.82;;;5.07;;
15216;SDS011;7711;46.634;14.318;2023-05-07T11:56:20;5.75;;;5.25;;
15216;SDS011;7711;46.634;14.318;2023-05-07T11:58:47;8.82;;;5.45;;
15216;SDS011;7711;46.634;14.318;2023-05-07T12:01:16;6.10;;;5.50;;
15216;SDS011;7711;46.634;14.318;2023-05-07T12:03:44;6.00;;;5.50;;
15216;SDS011;7711;46.634;14.318;2023-05-07T12:06:13;5.90;;;5.22;;
15216;SDS011;7711;46.634;14.318;2023-05-07T12:08:41;6.53;;;5.43;;
15216;SDS011;7711;46.634;14.318;2023-05-07T12:11:09;6.38;;;5.30;;
15216;SDS011;7711;46.634;14.318;2023-05-07T12:13:40;5.38;;;4.88;;
15216;SDS011;7711;46.634;14.318;2023-05-07T12:16:07;5.10;;;4.60;;
15216;SDS011;7711;46.634;14.318;2023-05-07T12:18:35;5.35;;;4.85;;
15216;SDS011;7711;46.634;14.318;2023-05-07T12:21:04;5.07;;;4.68;;
15216;SDS011;7711;46.634;14.318;2023-05-07T12:23:33;5.72;;;5.13;;
15216;SDS011;7711;46.634;14.318;2023-05-07T12:26:01;5.53;;;5.03;;
15216;SDS011;7711;46.634;14.318;2023-05-07T12:28:28;5.50;;;5.00;;
15216;SDS011;7711;46.634;14.318;2023-05-07T12:30:55;6.22;;;5.70;;
15216;SDS011;7711;46.634;14.318;2023-05-07T12:33:24;6.15;;;5.65;;
15216;SDS011;7711;46.634;14.318;2023-05-07T12:35:53;5.70;;;5.20;;
15216;SDS011;7711;46.634;14.318;2023-05-07T12:38:21;5.45;;;4.95;;
15216;SDS011;7711;46.634;14.318;2023-05-07T12:40:50;5.43;;;5.03;;
15216;SDS011;7711;46.634;14.318;2023-05-07T12:43:20;4.68;;;4.30;;
15216;SDS011;7711;46.634;14.318;2023-05-07T12:45:50;6.22;;;4.88;;
15216;SDS011;7711;46.634;14.318;2023-05-07T12:48:19;5.30;;;4.80;;
15216;SDS011;7711;46.634;14.318;2023-05-07T12:50:48;5.30;;;4.80;;
15216;SDS011;7711;46.634;14.318;2023-05-07T12:53:16;5.00;;;4.60;;
15216;SDS011;7711;46.634;14.318;2023-05-07T12:55:44;5.95;;;4.50;;
15216;SDS011;7711;46.634;14.318;2023-05-07T12:58:17;4.63;;;4.30;;
15216;SDS011;7711;46.634;14.318;2023-05-07T13:00:45;5.65;;;5.15;;
15216;SDS011;7711;46.634;14.318;2023-05-07T13:03:20;5.43;;;4.97;;
15216;SDS011;7711;46.634;14.318;2023-05-07T13:05:49;5.18;;;4.38;;
15216;SDS011;7711;46.634;14.318;2023-05-07T13:08:29;5.05;;;4.55;;
15216;SDS011;7711;46.634;14.318;2023-05-07T13:10:57;5.03;;;4.53;;
15216;SDS011;7711;46.634;14.318;2023-05-07T13:13:29;5.07;;;4.55;;
15216;SDS011;7711;46.634;14.318;2023-05-07T13:15:56;5.43;;;4.82;;
15216;SDS011;7711;46.634;14.318;2023-05-07T13:18:24;5.00;;;4.40;;
15216;SDS011;7711;46.634;14.318;2023-05-07T13:20:51;4.85;;;4.45;;
15216;SDS011;7711;46.634;14.318;2023-05-07T13:23:19;5.13;;;4.72;;
15216;SDS011;7711;46.634;14.318;2023-05-07T13:25:46;5.38;;;4.90;;
15216;SDS011;7711;46.634;14.318;2023-05-07T13:28:12;5.72;;;5.22;;
15216;SDS011;7711;46.634;14.318;2023-05-07T13:30:41;5.65;;;5.05;;
15216;SDS011;7711;46.634;14.318;2023-05-07T13:33:08;5.43;;;4.93;;
15216;SDS011;7711;46.634;14.318;2023-05-07T13:35:35;5.65;;;4.75;;
15216;SDS011;7711;46.634;14.318;2023-05-07T13:38:04;5.30;;;4.60;;
15216;SDS011;7711;46.634;14.318;2023-05-07T13:40:31;4.97;;;4.57;;
15216;SDS011;7711;46.634;14.318;2023-05-07T13:42:58;5.38;;;4.97;;
15216;SDS011;7711;46.634;14.318;2023-05-07T13:45:27;5.47;;;4.97;;
15216;SDS011;7711;46.634;14.318;2023-05-07T13:47:56;6.22;;;5.60;;
15216;SDS011;7711;46.634;14.318;2023-05-07T13:50:23;6.40;;;4.68;;
15216;SDS011;7711;46.634;14.318;2023-05-07T13:52:51;6.15;;;5.40;;
15216;SDS011;7711;46.634;14.318;2023-05-07T13:55:19;5.60;;;5.10;;
15216;SDS011;7711;46.634;14.318;2023-05-07T13:57:47;5.38;;;4.90;;
15216;SDS011;7711;46.634;14.318;2023-05-07T14:00:20;5.63;;;5.10;;
15216;SDS011;7711;46.634;14.318;2023-05-07T14:02:47;5.20;;;4.80;;
15216;SDS011;7711;46.634;14.318;2023-05-07T14:05:15;5.93;;;5.40;;
15216;SDS011;7711;46.634;14.318;2023-05-07T14:07:42;5.75;;;5.25;;
15216;SDS011;7711;46.634;14.318;2023-05-07T14:10:10;5.72;;;5.32;;
15216;SDS011;7711;46.634;14.318;2023-05-07T14:12:38;6.03;;;5.50;;
15216;SDS011;7711;46.634;14.318;2023-05-07T14:15:05;6.75;;;5.47;;
15216;SDS011;7711;46.634;14.318;2023-05-07T14:17:33;6.60;;;6.00;;
15216;SDS011;7711;46.634;14.318;2023-05-07T14:20:00;6.40;;;5.80;;
15216;SDS011;7711;46.634;14.318;2023-05-07T14:22:28;6.13;;;5.53;;
15216;SDS011;7711;46.634;14.318;2023-05-07T14:24:55;6.50;;;5.90;;
15216;SDS011;7711;46.634;14.318;2023-05-07T14:27:22;7.15;;;6.55;;
15216;SDS011;7711;46.634;14.318;2023-05-07T14:29:49;6.13;;;5.60;;
15216;SDS011;7711;46.634;14.318;2023-05-07T14:32:16;7.03;;;6.32;;
15216;SDS011;7711;46.634;14.318;2023-05-07T14:34:44;7.43;;;6.82;;
15216;SDS011;7711;46.634;14.318;2023-05-07T14:37:11;8.50;;;6.80;;
15216;SDS011;7711;46.634;14.318;2023-05-07T14:39:40;10.32;;;7.57;;
15216;SDS011;7711;46.634;14.318;2023-05-07T14:42:07;7.75;;;6.85;;
15216;SDS011;7711;46.634;14.318;2023-05-07T14:44:34;8.60;;;7.45;;
15216;SDS011;7711;46.634;14.318;2023-05-07T14:47:01;7.10;;;6.50;;
15216;SDS011;7711;46.634;14.318;2023-05-07T14:49:28;7.68;;;6.78;;
15216;SDS011;7711;46.634;14.318;2023-05-07T14:51:56;7.43;;;6.72;;
15216;SDS011;7711;46.634;14.318;2023-05-07T14:54:25;7.28;;;6.47;;
15216;SDS011;7711;46.634;14.318;2023-05-07T14:56:53;6.10;;;4.88;;
15216;SDS011;7711;46.634;14.318;2023-05-07T14:59:21;4.40;;;3.90;;
15216;SDS011;7711;46.634;14.318;2023-05-07T15:01:50;5.38;;;4.00;;